createdAt,value
2023-03-27T00:01:31.501Z,97683.00
2023-03-27T00:04:01.272Z,97678.09
2023-03-27T00:06:34.664Z,97684.78
2023-03-27T00:09:05.747Z,97684.78
2023-03-27T00:11:36.305Z,97682.69
2023-03-27T00:14:06.030Z,97680.34
2023-03-27T00:16:35.331Z,97683.13
2023-03-27T00:19:04.439Z,97683.69
2023-03-27T00:21:34.405Z,97680.22
2023-03-27T00:24:03.462Z,97683.47
2023-03-27T00:26:32.623Z,97680.78
2023-03-27T00:29:04.659Z,97687.38
2023-03-27T00:31:33.813Z,97692.19
2023-03-27T00:34:03.597Z,97690.31
2023-03-27T00:36:32.970Z,97693.38
2023-03-27T00:39:02.092Z,97686.88
2023-03-27T00:41:31.256Z,97692.56
2023-03-27T00:44:00.632Z,97698.78
2023-03-27T00:46:43.760Z,97698.81
2023-03-27T00:49:16.057Z,97687.81
2023-03-27T00:51:48.224Z,97694.59
2023-03-27T00:54:22.071Z,97696.44
2023-03-27T00:56:51.487Z,97700.09
2023-03-27T00:59:28.573Z,97702.44
2023-03-27T01:02:01.958Z,97705.56
2023-03-27T01:04:32.283Z,97704.06
2023-03-27T01:07:04.028Z,97709.22
2023-03-27T01:09:33.683Z,97710.00
2023-03-27T01:12:12.636Z,97705.94
2023-03-27T01:14:51.184Z,97698.66
2023-03-27T01:17:36.284Z,97702.81
2023-03-27T01:20:59.957Z,97709.47
2023-03-27T01:24:00.238Z,97703.22
2023-03-27T01:27:00.019Z,97702.44
2023-03-27T01:29:52.197Z,97707.94
2023-03-27T01:33:04.413Z,97708.38
2023-03-27T01:36:11.525Z,97712.34
2023-03-27T01:39:01.388Z,97708.53
2023-03-27T01:41:38.582Z,97720.22
2023-03-27T01:44:15.313Z,97717.78
2023-03-27T01:46:50.420Z,97724.50
2023-03-27T01:49:25.457Z,97721.91
2023-03-27T01:51:59.602Z,97723.69
2023-03-27T01:54:32.032Z,97720.38
2023-03-27T01:57:08.569Z,97709.56
2023-03-27T01:59:44.799Z,97706.28
2023-03-27T02:02:18.722Z,97720.03
2023-03-27T02:04:54.460Z,97717.50
2023-03-27T02:07:31.505Z,97718.19
2023-03-27T02:10:06.819Z,97721.44
2023-03-27T02:12:41.936Z,97714.00
2023-03-27T02:15:23.240Z,97720.72
2023-03-27T02:18:05.007Z,97724.97
2023-03-27T02:20:36.005Z,97729.44
2023-03-27T02:23:07.843Z,97719.94
2023-03-27T02:25:39.025Z,97723.13
2023-03-27T02:28:24.724Z,97726.25
2023-03-27T02:31:05.718Z,97720.47
2023-03-27T02:34:05.111Z,97721.25
2023-03-27T02:36:43.565Z,97718.16
2023-03-27T02:39:19.074Z,97717.50
2023-03-27T02:41:51.218Z,97717.09
2023-03-27T02:44:47.355Z,97720.19
2023-03-27T02:47:25.012Z,97719.41
2023-03-27T02:50:01.959Z,97727.47
2023-03-27T02:52:37.234Z,97720.78
2023-03-27T02:55:11.881Z,97723.19
2023-03-27T02:57:52.633Z,97728.69
2023-03-27T03:00:33.981Z,97740.41
2023-03-27T03:03:22.473Z,97737.03
2023-03-27T03:06:00.188Z,97743.59
2023-03-27T03:08:30.786Z,97736.00
2023-03-27T03:11:04.078Z,97742.94
2023-03-27T03:13:33.267Z,97741.25
2023-03-27T03:16:03.627Z,97744.72
2023-03-27T03:18:32.633Z,97750.91
2023-03-27T03:21:02.184Z,97746.50
2023-03-27T03:23:32.061Z,97742.16
2023-03-27T03:26:04.176Z,97745.22
2023-03-27T03:29:00.210Z,97746.13
2023-03-27T03:31:43.594Z,97752.28
2023-03-27T03:34:16.368Z,97753.94
2023-03-27T03:36:49.650Z,97755.09
2023-03-27T03:39:24.427Z,97755.53
2023-03-27T03:41:54.425Z,97763.59
2023-03-27T03:44:23.652Z,97761.38
2023-03-27T03:46:54.299Z,97763.44
2023-03-27T03:49:23.721Z,97770.63
2023-03-27T03:52:04.104Z,97771.13
2023-03-27T03:54:35.175Z,97763.97
2023-03-27T03:57:05.201Z,97763.53
2023-03-27T03:59:36.388Z,97762.06
2023-03-27T04:02:35.236Z,97762.16
2023-03-27T04:05:13.336Z,97763.13
2023-03-27T04:07:43.374Z,97766.16
2023-03-27T04:10:31.673Z,97759.00
2023-03-27T04:13:03.335Z,97757.91
2023-03-27T04:15:36.617Z,97758.88
2023-03-27T04:18:33.078Z,97755.28
2023-03-27T04:21:06.154Z,97753.94
2023-03-27T04:23:35.184Z,97762.13
2023-03-27T04:26:04.670Z,97761.03
2023-03-27T04:28:54.419Z,97761.72
2023-03-27T04:31:59.365Z,97770.69
2023-03-27T04:34:45.373Z,97772.81
2023-03-27T04:37:23.253Z,97768.13
2023-03-27T04:40:30.366Z,97761.50
2023-03-27T04:42:59.959Z,97761.16
2023-03-27T04:45:29.661Z,97767.78
2023-03-27T04:47:59.063Z,97761.97
2023-03-27T04:50:29.834Z,97764.31
2023-03-27T04:53:02.231Z,97764.41
2023-03-27T04:55:39.451Z,97762.06
2023-03-27T04:58:09.973Z,97756.00
2023-03-27T05:00:40.145Z,97756.22
2023-03-27T05:03:46.300Z,97763.09
2023-03-27T05:06:25.691Z,97768.00
2023-03-27T05:08:56.373Z,97770.25
2023-03-27T05:11:29.374Z,97773.03
2023-03-27T05:13:58.858Z,97773.28
2023-03-27T05:16:30.619Z,97775.78
2023-03-27T05:19:04.775Z,97777.09
2023-03-27T05:21:44.073Z,97780.91
2023-03-27T05:24:14.625Z,97783.59
2023-03-27T05:26:45.260Z,97777.88
2023-03-27T05:29:15.531Z,97784.28
2023-03-27T05:31:49.711Z,97785.19
2023-03-27T05:34:38.708Z,97789.88
2023-03-27T05:37:13.452Z,97781.81
2023-03-27T05:40:02.778Z,97788.03
2023-03-27T05:42:32.786Z,97777.00
2023-03-27T05:45:01.872Z,97777.09
2023-03-27T05:47:32.163Z,97771.81
2023-03-27T05:50:01.584Z,97765.81
2023-03-27T05:52:32.432Z,97774.59
2023-03-27T06:00:55.516Z,97786.25
2023-03-27T06:03:26.038Z,97783.81
2023-03-27T06:06:02.132Z,97790.22
2023-03-27T06:08:38.657Z,97794.22
2023-03-27T06:11:11.320Z,97790.34
2023-03-27T06:13:47.759Z,97795.97
2023-03-27T06:16:23.535Z,97795.50
2023-03-27T06:19:23.849Z,97802.91
2023-03-27T06:21:54.466Z,97810.09
2023-03-27T06:24:25.666Z,97820.81
2023-03-27T06:26:55.358Z,97819.88
2023-03-27T06:29:24.984Z,97826.06
2023-03-27T06:31:54.711Z,97819.53
2023-03-27T06:34:35.230Z,97825.16
2023-03-27T06:37:13.595Z,97825.41
2023-03-27T06:39:46.116Z,97825.16
2023-03-27T06:42:15.969Z,97830.34
2023-03-27T06:45:01.579Z,97834.75
2023-03-27T06:48:17.282Z,97840.34
2023-03-27T06:50:51.301Z,97831.25
2023-03-27T06:53:27.250Z,97827.84
2023-03-27T06:55:59.631Z,97833.69
2023-03-27T06:58:40.988Z,97840.88
2023-03-27T07:01:10.100Z,97841.75
2023-03-27T07:04:15.032Z,97834.66
2023-03-27T07:06:54.903Z,97833.88
2023-03-27T07:09:24.366Z,97836.34
2023-03-27T07:12:09.096Z,97834.56
2023-03-27T07:14:42.756Z,97846.91
2023-03-27T07:17:11.867Z,97847.97
2023-03-27T07:20:00.205Z,97854.94
2023-03-27T07:22:30.576Z,97858.66
2023-03-27T07:25:06.568Z,97847.50
2023-03-27T07:27:43.546Z,97846.06
2023-03-27T07:30:13.496Z,97847.38
2023-03-27T07:32:45.461Z,97840.66
2023-03-27T07:35:15.450Z,97842.03
2023-03-27T07:38:04.391Z,97836.38
2023-03-27T07:41:02.872Z,97840.66
2023-03-27T07:43:33.719Z,97839.78
2023-03-27T07:46:03.436Z,97844.47
2023-03-27T07:48:33.125Z,97841.56
2023-03-27T07:51:13.246Z,97845.38
2023-03-27T07:53:43.750Z,97832.78
2023-03-27T07:56:24.694Z,97834.31
2023-03-27T07:59:13.645Z,97829.34
2023-03-27T08:01:43.423Z,97832.69
2023-03-27T08:04:12.725Z,97827.66
2023-03-27T08:06:44.101Z,97825.16
2023-03-27T08:09:19.652Z,97825.69
2023-03-27T08:11:50.637Z,97822.84
2023-03-27T08:14:21.114Z,97823.44
2023-03-27T08:16:50.644Z,97824.66
2023-03-27T08:19:21.416Z,97819.91
2023-03-27T08:21:54.620Z,97821.78
2023-03-27T08:24:23.876Z,97827.13
2023-03-27T08:27:09.658Z,97829.22
2023-03-27T08:29:45.056Z,97825.44
2023-03-27T08:32:15.440Z,97822.28
2023-03-27T08:34:46.348Z,97820.00
2023-03-27T08:37:20.902Z,97821.06
2023-03-27T08:40:23.562Z,97822.63
2023-03-27T08:42:59.541Z,97825.06
2023-03-27T08:45:35.365Z,97813.50
2023-03-27T08:48:09.188Z,97820.47
2023-03-27T08:50:45.301Z,97818.03
2023-03-27T08:53:24.054Z,97813.22
2023-03-27T08:55:53.645Z,97814.75
2023-03-27T08:58:50.003Z,97819.72
2023-03-27T09:01:33.677Z,97829.25
2023-03-27T09:04:18.296Z,97830.72
2023-03-27T09:06:58.390Z,97831.44
2023-03-27T09:09:37.423Z,97831.53
2023-03-27T09:12:21.584Z,97838.22
2023-03-27T09:14:57.106Z,97841.50
2023-03-27T09:17:33.875Z,97822.63
2023-03-27T09:20:19.279Z,97831.63
2023-03-27T09:22:54.846Z,97831.81
2023-03-27T09:25:56.194Z,97838.81
2023-03-27T09:28:51.629Z,97843.19
2023-03-27T09:31:29.630Z,97845.84
2023-03-27T09:34:05.631Z,97849.59
2023-03-27T09:36:36.067Z,97839.06
2023-03-27T09:39:08.168Z,97847.44
2023-03-27T09:41:43.877Z,97848.66
2023-03-27T09:44:18.194Z,97849.84
2023-03-27T09:46:51.280Z,97845.09
2023-03-27T09:49:22.950Z,97853.16
2023-03-27T09:51:56.894Z,97843.41
2023-03-27T09:54:56.318Z,97851.09
2023-03-27T09:57:38.739Z,97859.22
2023-03-27T10:00:26.935Z,97858.88
2023-03-27T10:03:05.911Z,97854.44
2023-03-27T10:05:39.271Z,97852.47
2023-03-27T10:08:32.389Z,97855.50
2023-03-27T10:11:19.936Z,97856.50
2023-03-27T10:13:56.186Z,97858.03
2023-03-27T10:16:29.304Z,97857.47
2023-03-27T10:19:06.175Z,97856.03
2023-03-27T10:21:44.602Z,97853.97
2023-03-27T10:24:27.922Z,97856.59
2023-03-27T10:27:29.751Z,97853.22
2023-03-27T10:30:33.580Z,97857.06
2023-03-27T10:33:33.756Z,97857.69
2023-03-27T10:36:35.330Z,97857.94
2023-03-27T10:39:14.189Z,97860.31
2023-03-27T10:41:52.482Z,97870.72
2023-03-27T10:44:25.923Z,97864.69
2023-03-27T10:46:58.502Z,97866.72
2023-03-27T10:49:37.899Z,97869.00
2023-03-27T10:52:19.555Z,97873.25
2023-03-27T10:55:30.142Z,97878.22
2023-03-27T10:58:05.555Z,97880.69
2023-03-27T11:00:43.577Z,97873.44
2023-03-27T11:03:18.167Z,97883.03
2023-03-27T11:05:53.853Z,97885.03
2023-03-27T11:08:51.380Z,97879.22
2023-03-27T11:11:29.541Z,97885.16
2023-03-27T11:14:04.400Z,97884.19
2023-03-27T11:16:40.345Z,97882.13
2023-03-27T11:19:29.787Z,97896.44
2023-03-27T11:22:21.785Z,97891.81
2023-03-27T11:24:57.587Z,97887.13
2023-03-27T11:27:34.378Z,97883.31
2023-03-27T11:30:28.908Z,97879.47
2023-03-27T11:33:17.068Z,97888.25
2023-03-27T11:35:52.707Z,97891.19
2023-03-27T11:38:51.478Z,97904.69
2023-03-27T11:41:21.008Z,97910.22
2023-03-27T11:43:51.549Z,97905.81
2023-03-27T11:47:10.407Z,97910.06
2023-03-27T11:50:06.583Z,97909.59
2023-03-27T11:52:47.172Z,97911.84
2023-03-27T11:55:38.270Z,97911.19
2023-03-27T11:58:27.728Z,97913.16
2023-03-27T12:01:07.374Z,97920.78
2023-03-27T12:04:09.408Z,97922.56
2023-03-27T12:07:12.278Z,97922.34
2023-03-27T12:10:03.285Z,97919.47
2023-03-27T12:13:15.054Z,97913.44
2023-03-27T12:16:09.799Z,97911.22
2023-03-27T12:19:08.111Z,97924.56
2023-03-27T12:25:17.168Z,97925.69
2023-03-27T12:28:23.184Z,97926.56
2023-03-27T12:31:21.926Z,97932.56
2023-03-27T12:34:02.810Z,97936.56
2023-03-27T12:36:39.620Z,97935.16
2023-03-27T12:39:21.473Z,97931.97
2023-03-27T12:41:51.864Z,97932.91
2023-03-27T12:45:24.008Z,97932.25
2023-03-27T12:48:21.908Z,97935.69
2023-03-27T12:51:00.599Z,97927.59
2023-03-27T12:53:55.456Z,97943.88
2023-03-27T12:56:32.405Z,97942.66
2023-03-27T12:59:04.918Z,97946.31
2023-03-27T13:02:05.848Z,97950.22
2023-03-27T13:05:24.091Z,97950.94
2023-03-27T13:08:13.646Z,97945.78
2023-03-27T13:11:03.648Z,97947.38
2023-03-27T13:14:09.889Z,97951.69
2023-03-27T13:17:04.457Z,97952.66
2023-03-27T13:19:41.725Z,97953.28
2023-03-27T13:22:42.033Z,97953.78
2023-03-27T13:25:32.232Z,97962.66
2023-03-27T13:28:28.462Z,97954.06
2023-03-27T13:31:10.513Z,97962.91
2023-03-27T13:34:12.881Z,97961.69
2023-03-27T13:36:47.734Z,97962.03
2023-03-27T13:39:24.975Z,97970.50
2023-03-27T13:42:10.248Z,97974.44
2023-03-27T13:45:00.279Z,97976.75
2023-03-27T13:48:30.643Z,97977.53
2023-03-27T13:51:26.647Z,97976.56
2023-03-27T13:54:30.140Z,97985.16
2023-03-27T13:57:15.751Z,97991.00
2023-03-27T14:00:28.711Z,97982.09
2023-03-27T14:03:45.368Z,97992.41
2023-03-27T14:06:44.050Z,97996.31
2023-03-27T14:09:25.094Z,98002.22
2023-03-27T14:12:18.416Z,97999.75
2023-03-27T14:15:17.806Z,98002.97
2023-03-27T14:18:12.271Z,98003.44
2023-03-27T14:20:45.540Z,98012.94
2023-03-27T14:23:24.047Z,98018.34
2023-03-27T14:26:09.601Z,98019.13
2023-03-27T14:28:52.009Z,98024.97
2023-03-27T14:31:35.609Z,98025.28
2023-03-27T14:34:24.773Z,98025.19
2023-03-27T14:37:24.183Z,98027.38
2023-03-27T14:39:58.298Z,98027.09
2023-03-27T14:42:38.387Z,98030.59
2023-03-27T14:45:23.330Z,98035.72
2023-03-27T14:47:59.851Z,98039.97
2023-03-27T14:50:41.387Z,98043.06
2023-03-27T14:53:19.642Z,98041.06
2023-03-27T14:56:25.017Z,98046.25
2023-03-27T14:59:04.332Z,98051.56
2023-03-27T15:01:51.520Z,98052.28
2023-03-27T15:04:21.789Z,98051.78
2023-03-27T15:06:56.198Z,98067.13
2023-03-27T15:09:46.293Z,98061.81
2023-03-27T15:12:36.229Z,98063.81
2023-03-27T15:15:06.972Z,98071.13
2023-03-27T15:17:38.900Z,98078.75
2023-03-27T15:20:12.925Z,98082.84
2023-03-27T15:22:49.145Z,98087.00
2023-03-27T15:25:26.012Z,98083.28
2023-03-27T15:27:59.873Z,98091.34
2023-03-27T15:30:33.585Z,98092.47
2023-03-27T15:33:06.373Z,98101.72
2023-03-27T15:35:39.386Z,98098.09
2023-03-27T15:38:13.280Z,98097.88
2023-03-27T15:40:45.150Z,98105.06
2023-03-27T15:43:25.616Z,98116.38
2023-03-27T15:46:14.598Z,98117.16
2023-03-27T15:48:47.528Z,98124.28
2023-03-27T15:51:31.028Z,98122.44
2023-03-27T15:54:00.370Z,98135.75
2023-03-27T15:56:39.501Z,98143.59
2023-03-27T15:59:12.031Z,98144.97
2023-03-27T16:01:52.294Z,98145.41
2023-03-27T16:04:28.047Z,98150.41
2023-03-27T16:07:09.221Z,98156.00
2023-03-27T16:09:50.482Z,98159.03
2023-03-27T16:12:22.679Z,98163.19
2023-03-27T16:14:54.919Z,98172.19
2023-03-27T16:17:34.589Z,98178.03
2023-03-27T16:20:33.127Z,98176.91
2023-03-27T16:23:05.450Z,98178.94
2023-03-27T16:25:35.296Z,98188.06
2023-03-27T16:28:07.354Z,98189.78
2023-03-27T16:30:39.087Z,98191.25
2023-03-27T16:33:16.055Z,98192.47
2023-03-27T16:35:49.494Z,98192.47
2023-03-27T16:38:19.268Z,98195.28
2023-03-27T16:40:48.452Z,98203.75
2023-03-27T16:43:17.756Z,98201.94
2023-03-27T16:45:47.397Z,98201.25
2023-03-27T16:48:16.634Z,98204.19
2023-03-27T16:50:51.738Z,98213.06
2023-03-27T16:53:21.053Z,98221.41
2023-03-27T16:55:51.359Z,98217.38
2023-03-27T16:58:20.688Z,98227.19
2023-03-27T17:00:50.035Z,98226.84
2023-03-27T17:03:19.265Z,98230.31
2023-03-27T17:05:50.594Z,98222.19
2023-03-27T17:08:19.767Z,98231.56
2023-03-27T17:10:49.012Z,98242.50
2023-03-27T17:13:19.478Z,98238.69
2023-03-27T17:15:51.476Z,98250.50
2023-03-27T17:18:20.927Z,98243.88
2023-03-27T17:20:51.642Z,98251.19
2023-03-27T17:23:21.375Z,98247.13
2023-03-27T17:25:50.972Z,98248.25
2023-03-27T17:28:20.590Z,98250.06
2023-03-27T17:31:01.086Z,98254.25
2023-03-27T17:33:33.056Z,98261.22
2023-03-27T17:36:09.020Z,98268.41
2023-03-27T17:38:39.837Z,98266.63
2023-03-27T17:41:10.208Z,98269.78
2023-03-27T17:43:39.883Z,98262.34
2023-03-27T17:46:09.630Z,98275.84
2023-03-27T17:48:38.988Z,98277.56
2023-03-27T17:51:10.178Z,98270.53
2023-03-27T17:53:40.784Z,98272.13
2023-03-27T17:56:13.060Z,98278.78
2023-03-27T17:58:44.207Z,98277.31
2023-03-27T18:01:15.179Z,98288.81
2023-03-27T18:03:44.901Z,98294.03
2023-03-27T18:06:17.503Z,98296.19
2023-03-27T18:08:47.817Z,98297.50
2023-03-27T18:11:18.540Z,98303.25
2023-03-27T18:13:52.727Z,98302.59
2023-03-27T18:16:23.594Z,98311.72
2023-03-27T18:18:55.701Z,98310.28
2023-03-27T18:21:26.960Z,98310.56
2023-03-27T18:23:59.669Z,98315.03
2023-03-27T18:26:29.010Z,98319.75
2023-03-27T18:28:58.185Z,98314.94
2023-03-27T18:31:27.670Z,98322.28
2023-03-27T18:33:57.270Z,98323.44
2023-03-27T18:36:28.196Z,98323.56
2023-03-27T18:38:57.440Z,98324.13
2023-03-27T18:41:26.677Z,98328.78
2023-03-27T18:43:55.966Z,98337.63
2023-03-27T18:46:25.037Z,98340.72
2023-03-27T18:48:54.233Z,98352.09
2023-03-27T18:51:24.129Z,98357.19
2023-03-27T18:53:56.148Z,98358.59
2023-03-27T18:56:26.338Z,98358.53
2023-03-27T18:58:55.858Z,98354.66
2023-03-27T19:01:27.085Z,98362.38
2023-03-27T19:03:57.355Z,98362.31
2023-03-27T19:06:26.819Z,98368.44
2023-03-27T19:08:57.984Z,98369.25
2023-03-27T19:11:27.311Z,98368.09
2023-03-27T19:14:09.440Z,98378.44
2023-03-27T19:16:57.697Z,98380.00
2023-03-27T19:19:46.508Z,98390.69
2023-03-27T19:22:22.952Z,98393.13
2023-03-27T19:25:03.813Z,98390.91
2023-03-27T19:27:39.168Z,98396.88
2023-03-27T19:30:10.874Z,98392.69
2023-03-27T19:32:41.598Z,98400.47
2023-03-27T19:35:11.679Z,98408.22
2023-03-27T19:37:41.872Z,98411.34
2023-03-27T19:40:13.552Z,98413.34
2023-03-27T19:42:42.630Z,98414.47
2023-03-27T19:45:12.758Z,98417.63
2023-03-27T19:47:41.993Z,98422.91
2023-03-27T19:50:11.264Z,98429.66
2023-03-27T19:53:05.412Z,98437.94
2023-03-27T19:55:39.070Z,98439.63
2023-03-27T19:58:08.195Z,98449.84
2023-03-27T20:00:39.602Z,98447.69
2023-03-27T20:03:10.602Z,98456.88
2023-03-27T20:05:41.603Z,98467.22
2023-03-27T20:08:10.738Z,98474.44
2023-03-27T20:10:41.389Z,98479.19
2023-03-27T20:13:12.485Z,98479.19
2023-03-27T20:15:42.426Z,98478.31
2023-03-27T20:18:11.487Z,98487.75
2023-03-27T20:20:43.706Z,98492.03
2023-03-27T20:23:14.669Z,98494.97
2023-03-27T20:25:45.982Z,98495.25
2023-03-27T20:28:15.021Z,98493.69
2023-03-27T20:30:44.266Z,98497.53
2023-03-27T20:33:13.270Z,98500.13
2023-03-27T20:35:45.037Z,98492.28
2023-03-27T20:38:15.098Z,98499.44
2023-03-27T20:40:53.111Z,98504.34
2023-03-27T20:43:27.353Z,98505.31
2023-03-27T20:45:59.088Z,98508.78
2023-03-27T20:48:32.631Z,98509.81
2023-03-27T20:51:03.065Z,98511.91
2023-03-27T20:53:34.106Z,98509.84
2023-03-27T20:56:54.260Z,98512.19
2023-03-27T20:59:23.299Z,98514.00
2023-03-27T21:01:52.367Z,98517.34
2023-03-27T21:04:21.699Z,98510.63
2023-03-27T21:06:51.698Z,98516.59
2023-03-27T21:09:20.680Z,98513.75
2023-03-27T21:11:51.677Z,98517.38
2023-03-27T21:14:20.765Z,98507.25
2023-03-27T21:16:49.727Z,98516.50
2023-03-27T21:19:18.696Z,98512.59
2023-03-27T21:21:48.699Z,98515.44
2023-03-27T21:24:18.144Z,98515.25
2023-03-27T21:26:51.505Z,98512.75
2023-03-27T21:29:21.048Z,98512.47
2023-03-27T21:31:50.266Z,98524.47
2023-03-27T21:34:19.352Z,98518.91
2023-03-27T21:36:52.749Z,98525.63
2023-03-27T21:39:21.782Z,98523.69
2023-03-27T21:41:52.272Z,98516.25
2023-03-27T21:44:21.263Z,98515.69
2023-03-27T21:46:50.463Z,98520.03
2023-03-27T21:49:19.627Z,98520.09
2023-03-27T21:51:48.759Z,98521.28
2023-03-27T21:54:17.776Z,98522.34
2023-03-27T21:56:46.826Z,98521.06
2023-03-27T21:59:17.370Z,98526.88
2023-03-27T22:01:46.471Z,98522.16
2023-03-27T22:04:15.823Z,98525.69
2023-03-27T22:06:46.023Z,98529.75
2023-03-27T22:09:16.992Z,98541.91
2023-03-27T22:11:46.058Z,98542.09
2023-03-27T22:14:16.712Z,98549.50
2023-03-27T22:16:45.889Z,98554.09
2023-03-27T22:19:14.798Z,98553.81
2023-03-27T22:21:43.852Z,98556.84
2023-03-27T22:24:12.858Z,98561.41
2023-03-27T22:26:42.497Z,98561.09
2023-03-27T22:29:11.378Z,98569.00
2023-03-27T22:31:42.528Z,98573.56
2023-03-27T22:34:12.046Z,98580.66
2023-03-27T22:36:41.728Z,98588.13
2023-03-27T22:39:10.744Z,98596.88
2023-03-27T22:41:39.713Z,98604.44
2023-03-27T22:44:08.717Z,98600.97
2023-03-27T22:46:38.005Z,98608.84
2023-03-27T22:49:08.440Z,98614.28
2023-03-27T22:51:37.406Z,98611.69
2023-03-27T22:54:06.871Z,98624.53
2023-03-27T22:56:55.402Z,98617.75
2023-03-27T22:59:24.396Z,98621.19
2023-03-27T23:01:53.409Z,98615.59
2023-03-27T23:04:24.090Z,98622.84
2023-03-27T23:06:53.178Z,98620.44
2023-03-27T23:09:22.144Z,98616.53
2023-03-27T23:11:51.187Z,98621.69
2023-03-27T23:14:20.066Z,98631.06
2023-03-27T23:16:49.090Z,98628.81
2023-03-27T23:19:18.178Z,98634.41
2023-03-27T23:21:48.646Z,98637.56
2023-03-27T23:24:17.502Z,98633.66
2023-03-27T23:26:46.559Z,98637.41
2023-03-27T23:29:15.625Z,98653.75
2023-03-27T23:31:45.615Z,98652.38
2023-03-27T23:34:14.612Z,98654.66
2023-03-27T23:36:43.545Z,98656.47
2023-03-27T23:39:14.098Z,98660.38
2023-03-27T23:41:43.114Z,98660.06
2023-03-27T23:44:12.196Z,98660.09
2023-03-27T23:46:41.599Z,98671.69
2023-03-27T23:49:13.115Z,98668.81
2023-03-27T23:51:41.966Z,98671.66
2023-03-27T23:54:10.842Z,98670.28
2023-03-27T23:56:41.236Z,98677.53
2023-03-27T23:59:10.181Z,98679.59
